Terminal Aerodrome Forecast
Issued by NWS

Home | Current Version | Previous Version | Graphics & Text | Print | Product List | Glossary On
Versions: 1 2 3 4 5 6 7 8 9 10 11 12 13 14 15 16 17 18 19 20 21
720
FTUS43 KABR 292219 AAC
TAFMBG
TAF AMD
KMBG 292219Z 2922/3018 25016G21KT P6SM -SHRA VCTS FEW060 SCT070CB
      OVC090
      TEMPO 2922/2923 2SM -TSRA BR BKN060CB OVC080
     FM300200 VRB05KT P6SM SCT250
     FM301400 14008KT P6SM VCSH BKN250=

USA.gov is the U.S. government's official web portal to all federal, state and local government web resources and services.